Time;durP1;ratioP1;P1;durP2;ratioP2;P2;SDS_P1;SDS_P2;PMS_P1;PMS_P2;Temp;Humidity;BMP_temperature;BMP_pressure;BME280_temperature;BME280_humidity;BME280_pressure;Samples;Min_cycle;Max_cycle;Signal;HPM_P1;HPM_P2
2021/03/30 00:00:08;;;;;;;10.65;6.90;;;;;;;;;;5072403;28;20079;-17
2021/03/30 00:02:34;;;;;;;10.02;7.15;;;;;;;;;;5072373;28;20399;-18
2021/03/30 00:04:59;;;;;;;14.30;7.18;;;;;;;;;;5072341;28;20032;-18
2021/03/30 00:07:24;;;;;;;12.05;7.43;;;;;;;;;;5072249;28;20024;-17
2021/03/30 00:09:50;;;;;;;11.15;6.85;;;;;;;;;;5072464;28;20025;-17
2021/03/30 00:12:16;;;;;;;8.93;6.20;;;;;;;;;;5072271;28;20466;-17
2021/03/30 00:14:41;;;;;;;11.15;7.38;;;;;;;;;;5072230;28;20029;-17
2021/03/30 00:17:07;;;;;;;9.95;6.80;;;;;;;;;;5070957;28;20017;-17
2021/03/30 00:19:32;;;;;;;22.30;7.10;;;;;;;;;;5072112;28;20563;-17
2021/03/30 00:21:57;;;;;;;10.35;6.45;;;;;;;;;;5072199;28;20013;-18
2021/03/30 00:24:23;;;;;;;8.10;5.95;;;;;;;;;;5072053;28;20037;-18
2021/03/30 00:26:48;;;;;;;11.98;6.45;;;;;;;;;;5072088;28;20128;-17
2021/03/30 00:29:13;;;;;;;11.35;6.72;;;;;;;;;;5070756;28;20391;-17
2021/03/30 00:31:39;;;;;;;9.43;6.32;;;;;;;;;;5072105;28;20021;-17
2021/03/30 00:34:04;;;;;;;13.23;7.20;;;;;;;;;;5072194;28;20025;-17
2021/03/30 00:36:29;;;;;;;11.68;7.13;;;;;;;;;;5072174;28;20525;-17
2021/03/30 00:38:55;;;;;;;11.07;6.60;;;;;;;;;;5072029;28;20102;-18
2021/03/30 00:41:20;;;;;;;9.90;6.93;;;;;;;;;;5072281;28;20008;-17
2021/03/30 00:43:46;;;;;;;10.95;6.18;;;;;;;;;;5071820;28;20044;-18
2021/03/30 00:46:15;;;;;;;9.93;6.80;;;;;;;;;;5072001;28;20024;-18
2021/03/30 00:48:41;;;;;;;11.38;6.93;;;;;;;;;;5072115;28;20025;-17
2021/03/30 00:51:08;;;;;;;11.85;7.10;;;;;;;;;;5074596;28;20083;-18
2021/03/30 00:53:52;;;;;;;10.65;7.18;;;;;;;;;;5076186;28;20047;-18
2021/03/30 00:56:26;;;;;;;7.97;5.70;;;;;;;;;;5074456;28;20101;-17
2021/03/30 00:58:52;;;;;;;10.88;6.75;;;;;;;;;;5075985;28;20604;-18
2021/03/30 01:01:18;;;;;;;9.00;7.07;;;;;;;;;;5075663;28;20021;-22
2021/03/30 01:03:43;;;;;;;8.90;6.72;;;;;;;;;;5075970;28;20115;-17
2021/03/30 01:06:08;;;;;;;11.85;6.60;;;;;;;;;;5075535;28;20344;-18
2021/03/30 01:08:36;;;;;;;12.90;7.25;;;;;;;;;;5075826;28;20033;-17
2021/03/30 01:11:08;;;;;;;13.77;6.95;;;;;;;;;;5075861;28;20012;-17
2021/03/30 01:13:33;;;;;;;10.35;6.75;;;;;;;;;;5074127;28;20036;-17
2021/03/30 01:16:03;;;;;;;15.20;7.72;;;;;;;;;;5074210;28;20024;-18
2021/03/30 01:18:36;;;;;;;11.00;6.85;;;;;;;;;;5075376;28;20040;-17
2021/03/30 01:21:05;;;;;;;11.48;6.65;;;;;;;;;;5075424;28;20044;-17
2021/03/30 01:23:40;;;;;;;12.90;7.05;;;;;;;;;;5075392;28;20063;-17
2021/03/30 01:26:11;;;;;;;13.13;6.55;;;;;;;;;;5075247;28;20045;-19
2021/03/30 01:28:48;;;;;;;14.60;7.75;;;;;;;;;;5075269;28;20056;-17
2021/03/30 01:31:14;;;;;;;7.97;6.22;;;;;;;;;;5075271;28;20040;-18
2021/03/30 01:33:40;;;;;;;11.25;7.13;;;;;;;;;;5075009;28;20356;-18
2021/03/30 01:36:06;;;;;;;10.50;6.32;;;;;;;;;;5075366;28;20040;-17
2021/03/30 01:38:32;;;;;;;8.55;6.47;;;;;;;;;;5074849;28;20012;-17
2021/03/30 01:40:58;;;;;;;8.32;5.97;;;;;;;;;;5074883;28;20373;-17
2021/03/30 01:43:25;;;;;;;11.48;5.95;;;;;;;;;;5074940;28;20435;-17
2021/03/30 01:45:54;;;;;;;9.43;5.85;;;;;;;;;;5074938;28;20032;-18
2021/03/30 01:48:20;;;;;;;9.45;6.20;;;;;;;;;;5075023;28;20027;-18
2021/03/30 01:50:46;;;;;;;16.10;6.15;;;;;;;;;;5074835;28;20506;-17
2021/03/30 01:53:11;;;;;;;8.02;5.47;;;;;;;;;;5074999;28;20025;-18
2021/03/30 01:55:38;;;;;;;10.10;6.55;;;;;;;;;;5074684;28;20025;-18
2021/03/30 01:58:04;;;;;;;9.63;5.70;;;;;;;;;;5074587;28;20032;-17
2021/03/30 02:00:32;;;;;;;11.88;6.40;;;;;;;;;;5074149;28;20024;-18
2021/03/30 02:02:59;;;;;;;10.20;5.88;;;;;;;;;;5074779;28;20028;-18
2021/03/30 02:05:25;;;;;;;7.13;5.43;;;;;;;;;;5074473;28;20090;-18
2021/03/30 02:07:52;;;;;;;9.88;5.63;;;;;;;;;;5074548;28;20013;-18
2021/03/30 02:10:29;;;;;;;8.93;5.95;;;;;;;;;;5074338;28;20020;-18
2021/03/30 02:12:55;;;;;;;9.18;5.57;;;;;;;;;;5074809;28;20048;-18
2021/03/30 02:15:20;;;;;;;8.02;5.95;;;;;;;;;;5074265;28;20017;-18
2021/03/30 02:18:00;;;;;;;10.75;6.15;;;;;;;;;;5074509;28;20162;-18
2021/03/30 02:20:39;;;;;;;9.75;6.03;;;;;;;;;;5074194;28;20467;-18
2021/03/30 02:23:04;;;;;;;10.80;5.60;;;;;;;;;;5073409;28;20033;-18
2021/03/30 02:25:31;;;;;;;7.72;5.72;;;;;;;;;;5073913;28;20044;-18
2021/03/30 02:28:01;;;;;;;8.98;6.35;;;;;;;;;;5074429;28;20028;-18
2021/03/30 02:30:27;;;;;;;12.10;6.82;;;;;;;;;;5071737;28;20055;-18
2021/03/30 02:32:54;;;;;;;10.27;6.22;;;;;;;;;;5056502;28;20064;-18
2021/03/30 02:35:22;;;;;;;11.20;6.28;;;;;;;;;;5053923;28;20032;-18
2021/03/30 02:37:47;;;;;;;10.10;6.57;;;;;;;;;;5053352;28;20493;-18
2021/03/30 02:40:16;;;;;;;7.90;5.95;;;;;;;;;;5053596;28;20025;-18
2021/03/30 02:42:44;;;;;;;9.18;6.50;;;;;;;;;;5053566;28;20029;-18
2021/03/30 02:45:10;;;;;;;7.68;5.60;;;;;;;;;;5053326;28;20032;-20
2021/03/30 02:47:37;;;;;;;9.02;6.20;;;;;;;;;;5053282;28;20522;-18
2021/03/30 02:50:03;;;;;;;9.45;6.45;;;;;;;;;;5085603;28;20468;-18
2021/03/30 02:52:29;;;;;;;7.13;5.65;;;;;;;;;;5053517;28;20451;-18
2021/03/30 02:54:55;;;;;;;11.00;6.22;;;;;;;;;;5053649;28;20112;-18
2021/03/30 02:57:23;;;;;;;8.38;5.72;;;;;;;;;;5053431;28;20060;-18
2021/03/30 02:59:49;;;;;;;10.05;5.93;;;;;;;;;;5053547;28;20070;-18
2021/03/30 03:02:14;;;;;;;10.18;6.32;;;;;;;;;;5053295;28;20040;-18
2021/03/30 03:04:40;;;;;;;9.07;5.85;;;;;;;;;;5053290;28;20025;-18
2021/03/30 03:07:05;;;;;;;8.57;5.60;;;;;;;;;;5053593;28;20032;-18
2021/03/30 03:09:32;;;;;;;10.57;6.10;;;;;;;;;;5052942;28;20021;-17
2021/03/30 03:11:58;;;;;;;11.45;5.40;;;;;;;;;;5052711;28;20029;-18
2021/03/30 03:14:24;;;;;;;11.43;6.15;;;;;;;;;;5053165;28;20494;-19
2021/03/30 03:16:50;;;;;;;12.30;6.78;;;;;;;;;;5051814;28;20029;-18
2021/03/30 03:19:16;;;;;;;9.80;5.82;;;;;;;;;;5053151;28;20368;-18
2021/03/30 03:21:42;;;;;;;7.95;5.82;;;;;;;;;;5053302;28;20032;-18
2021/03/30 03:24:11;;;;;;;7.97;5.40;;;;;;;;;;5053258;28;20044;-18
2021/03/30 03:26:38;;;;;;;9.57;5.60;;;;;;;;;;5052784;28;20033;-18
2021/03/30 03:29:09;;;;;;;8.75;5.82;;;;;;;;;;5053159;28;20121;-18
2021/03/30 03:31:35;;;;;;;9.43;5.55;;;;;;;;;;5053066;28;20380;-18
2021/03/30 03:34:01;;;;;;;20.02;6.65;;;;;;;;;;5051521;28;20071;-18
2021/03/30 03:36:34;;;;;;;8.15;5.93;;;;;;;;;;5053078;28;20411;-18
2021/03/30 03:38:59;;;;;;;10.82;5.75;;;;;;;;;;5052973;28;20124;-18
2021/03/30 03:41:25;;;;;;;6.38;4.72;;;;;;;;;;5052701;28;20100;-18
2021/03/30 03:43:50;;;;;;;6.95;5.03;;;;;;;;;;5052489;28;20045;-18
2021/03/30 03:46:16;;;;;;;11.63;5.00;;;;;;;;;;5052847;28;20040;-18
2021/03/30 03:48:41;;;;;;;10.13;5.78;;;;;;;;;;5052732;28;20021;-19
2021/03/30 03:51:07;;;;;;;10.10;5.80;;;;;;;;;;5052608;28;20017;-18
2021/03/30 03:53:34;;;;;;;8.23;5.85;;;;;;;;;;5052442;28;20040;-18
2021/03/30 03:56:00;;;;;;;8.65;5.25;;;;;;;;;;5052743;28;20045;-18
2021/03/30 03:58:31;;;;;;;12.43;5.65;;;;;;;;;;5052693;28;20106;-18
2021/03/30 04:00:57;;;;;;;9.48;5.30;;;;;;;;;;5052308;28;20040;-18
2021/03/30 04:03:24;;;;;;;8.57;5.40;;;;;;;;;;5052276;28;20051;-18
2021/03/30 04:05:52;;;;;;;8.32;5.60;;;;;;;;;;5052597;28;20032;-18
2021/03/30 04:08:19;;;;;;;6.20;5.20;;;;;;;;;;5052085;28;20529;-18
2021/03/30 04:10:48;;;;;;;6.40;4.93;;;;;;;;;;5052366;28;20036;-18
2021/03/30 04:13:16;;;;;;;9.80;5.82;;;;;;;;;;5052326;28;20033;-18
2021/03/30 04:15:42;;;;;;;8.43;5.22;;;;;;;;;;5052382;28;20029;-18
2021/03/30 04:18:07;;;;;;;9.38;5.45;;;;;;;;;;5052152;28;20024;-18
2021/03/30 04:20:33;;;;;;;7.78;4.65;;;;;;;;;;5052615;28;20025;-18
2021/03/30 04:22:59;;;;;;;11.98;5.45;;;;;;;;;;5051899;28;20029;-18
2021/03/30 04:25:25;;;;;;;8.93;5.43;;;;;;;;;;5052103;28;20522;-18
2021/03/30 04:27:51;;;;;;;9.80;5.95;;;;;;;;;;5052072;28;20090;-18
2021/03/30 04:30:17;;;;;;;9.05;4.63;;;;;;;;;;5050815;28;20475;-18
2021/03/30 04:32:42;;;;;;;6.07;5.47;;;;;;;;;;5052252;28;20025;-18
2021/03/30 04:35:08;;;;;;;8.05;5.60;;;;;;;;;;5052078;28;20395;-18
2021/03/30 04:37:34;;;;;;;6.82;4.93;;;;;;;;;;5051862;28;20020;-18
2021/03/30 04:39:59;;;;;;;9.77;5.57;;;;;;;;;;5052060;28;20529;-18
2021/03/30 04:42:25;;;;;;;8.93;5.40;;;;;;;;;;5051823;28;20043;-18
2021/03/30 04:44:50;;;;;;;6.85;5.35;;;;;;;;;;5051939;28;20033;-18
2021/03/30 04:47:17;;;;;;;9.80;5.28;;;;;;;;;;5052000;28;20024;-18
2021/03/30 04:49:42;;;;;;;8.75;5.18;;;;;;;;;;5051804;28;20037;-18
2021/03/30 04:52:07;;;;;;;7.97;5.60;;;;;;;;;;5051877;28;20024;-18
2021/03/30 04:54:33;;;;;;;6.80;5.03;;;;;;;;;;5051831;28;20031;-18
2021/03/30 04:56:58;;;;;;;6.63;4.80;;;;;;;;;;5052011;28;20025;-18
2021/03/30 04:59:24;;;;;;;10.77;5.88;;;;;;;;;;5051972;28;20029;-17
2021/03/30 05:01:49;;;;;;;6.35;4.72;;;;;;;;;;5051876;28;20029;-18
2021/03/30 05:04:16;;;;;;;9.10;5.20;;;;;;;;;;5051867;28;20365;-18
2021/03/30 05:06:42;;;;;;;12.35;5.68;;;;;;;;;;5051637;28;20017;-18
2021/03/30 05:09:07;;;;;;;9.02;4.60;;;;;;;;;;5052003;28;20033;-18
2021/03/30 05:11:32;;;;;;;7.60;5.32;;;;;;;;;;5051850;28;20115;-17
2021/03/30 05:13:58;;;;;;;7.80;5.40;;;;;;;;;;5052022;28;20063;-18
2021/03/30 05:16:23;;;;;;;7.60;4.95;;;;;;;;;;5051850;28;20099;-17
2021/03/30 05:18:49;;;;;;;7.78;4.80;;;;;;;;;;5051780;28;20052;-17
2021/03/30 05:21:14;;;;;;;9.73;5.13;;;;;;;;;;5051922;28;20025;-17
2021/03/30 05:23:40;;;;;;;5.53;4.43;;;;;;;;;;5051476;28;20044;-17
2021/03/30 05:26:05;;;;;;;6.28;5.00;;;;;;;;;;5051623;28;20480;-17
2021/03/30 05:28:31;;;;;;;8.93;5.68;;;;;;;;;;5049968;28;20392;-18
2021/03/30 05:30:56;;;;;;;6.40;4.68;;;;;;;;;;5051532;28;20033;-18
2021/03/30 05:33:22;;;;;;;8.27;5.57;;;;;;;;;;5051658;28;20029;-17
2021/03/30 05:35:47;;;;;;;4.95;4.45;;;;;;;;;;5053580;28;20029;-18
2021/03/30 05:38:13;;;;;;;8.77;5.32;;;;;;;;;;5055140;28;20037;-17
2021/03/30 05:40:39;;;;;;;6.13;4.47;;;;;;;;;;5055164;28;20028;-18
2021/03/30 05:43:04;;;;;;;7.90;4.72;;;;;;;;;;5054890;28;20029;-17
2021/03/30 05:45:30;;;;;;;7.80;5.15;;;;;;;;;;5054970;28;20013;-17
2021/03/30 05:47:57;;;;;;;8.82;4.85;;;;;;;;;;5055006;28;20036;-18
2021/03/30 05:50:23;;;;;;;7.15;4.72;;;;;;;;;;5054988;28;20013;-17
2021/03/30 05:55:23;;;;;;;9.93;5.28;;;;;;;;;;5054736;28;20017;-17
2021/03/30 05:57:50;;;;;;;7.25;4.93;;;;;;;;;;5054947;28;20078;-18
2021/03/30 06:00:16;;;;;;;9.18;4.15;;;;;;;;;;5054675;28;20092;-18
2021/03/30 06:02:43;;;;;;;8.07;4.93;;;;;;;;;;5054506;28;20031;-17
2021/03/30 06:05:12;;;;;;;13.73;8.77;;;;;;;;;;5053254;28;20029;-17
2021/03/30 06:07:37;;;;;;;8.52;5.28;;;;;;;;;;5054411;28;20029;-18
2021/03/30 06:10:07;;;;;;;8.25;4.95;;;;;;;;;;5054538;28;20032;-18
2021/03/30 06:12:32;;;;;;;6.05;4.50;;;;;;;;;;5086675;28;20182;-17
2021/03/30 06:15:02;;;;;;;9.23;4.82;;;;;;;;;;5054658;28;20104;-18
2021/03/30 06:17:28;;;;;;;6.13;3.72;;;;;;;;;;5054371;28;20029;-17
2021/03/30 06:19:54;;;;;;;7.13;5.40;;;;;;;;;;5054396;28;20345;-17
2021/03/30 06:22:21;;;;;;;6.57;4.88;;;;;;;;;;5052784;28;20039;-17
2021/03/30 06:24:47;;;;;;;11.02;4.80;;;;;;;;;;5054482;28;20025;-17
2021/03/30 06:27:20;;;;;;;7.47;4.30;;;;;;;;;;5054011;28;20125;-17
2021/03/30 06:29:46;;;;;;;8.05;4.43;;;;;;;;;;5053932;28;20067;-17
2021/03/30 06:32:12;;;;;;;5.05;3.95;;;;;;;;;;5054191;28;20020;-17
2021/03/30 06:34:39;;;;;;;10.05;4.95;;;;;;;;;;5053901;28;20464;-18
2021/03/30 06:37:23;;;;;;;10.45;4.03;;;;;;;;;;5053941;28;20096;-17
2021/03/30 06:39:49;;;;;;;6.20;4.32;;;;;;;;;;5053891;28;20295;-17
2021/03/30 06:42:26;;;;;;;7.38;5.20;;;;;;;;;;5054169;28;20013;-18
2021/03/30 06:44:51;;;;;;;8.55;4.68;;;;;;;;;;5053773;28;20037;-18
2021/03/30 06:47:18;;;;;;;6.78;4.38;;;;;;;;;;5053698;28;20124;-17
2021/03/30 06:50:02;;;;;;;7.03;4.40;;;;;;;;;;5053653;28;20040;-17
2021/03/30 06:52:29;;;;;;;5.93;4.72;;;;;;;;;;5053904;28;20052;-17
2021/03/30 06:54:59;;;;;;;6.75;4.45;;;;;;;;;;5053588;28;20071;-18
2021/03/30 06:57:33;;;;;;;6.68;3.95;;;;;;;;;;5053476;28;20104;-18
2021/03/30 06:59:59;;;;;;;6.43;4.35;;;;;;;;;;5053795;28;20052;-18
2021/03/30 07:02:28;;;;;;;13.55;8.35;;;;;;;;;;5053330;28;20371;-17
2021/03/30 07:04:54;;;;;;;6.85;4.15;;;;;;;;;;5053492;28;20036;-17
2021/03/30 07:07:21;;;;;;;5.47;3.67;;;;;;;;;;5053294;28;20060;-17
2021/03/30 07:09:47;;;;;;;7.22;4.00;;;;;;;;;;5053374;28;20504;-17
2021/03/30 07:12:12;;;;;;;8.73;4.70;;;;;;;;;;5053606;28;20019;-18
2021/03/30 07:14:37;;;;;;;6.65;4.40;;;;;;;;;;5053123;28;20396;-17
2021/03/30 07:17:03;;;;;;;5.22;4.45;;;;;;;;;;5053273;28;20020;-17
2021/03/30 07:19:30;;;;;;;7.10;4.03;;;;;;;;;;5051599;28;20032;-17
2021/03/30 07:22:10;;;;;;;5.88;4.28;;;;;;;;;;5053197;28;20027;-17
2021/03/30 07:24:42;;;;;;;11.02;4.40;;;;;;;;;;5053140;28;20045;-20
2021/03/30 07:27:12;;;;;;;7.85;4.00;;;;;;;;;;5052863;28;20053;-19
2021/03/30 07:29:42;;;;;;;6.38;3.58;;;;;;;;;;5052813;28;20029;-16
2021/03/30 07:32:22;;;;;;;7.75;4.07;;;;;;;;;;5053004;28;20044;-19
2021/03/30 07:35:06;;;;;;;7.03;4.72;;;;;;;;;;5052828;28;20108;-18
2021/03/30 07:38:03;;;;;;;10.57;4.47;;;;;;;;;;5052744;28;20059;-17
2021/03/30 07:40:29;;;;;;;9.80;4.45;;;;;;;;;;4705057;28;9999659;-18
2021/03/30 07:42:56;;;;;;;6.47;3.65;;;;;;;;;;5053162;28;20037;-18
2021/03/30 07:45:23;;;;;;;7.25;4.45;;;;;;;;;;5047663;28;20036;-18
2021/03/30 07:47:49;;;;;;;4.90;3.83;;;;;;;;;;5049037;28;20551;-17
2021/03/30 07:50:17;;;;;;;9.32;4.32;;;;;;;;;;5049041;28;20052;-19
2021/03/30 07:52:47;;;;;;;5.32;3.90;;;;;;;;;;5048262;28;20416;-21
2021/03/30 07:55:14;;;;;;;6.55;4.18;;;;;;;;;;5048755;28;20028;-19
2021/03/30 07:57:58;;;;;;;9.63;3.58;;;;;;;;;;5051805;28;20025;-17
2021/03/30 08:00:33;;;;;;;5.32;4.00;;;;;;;;;;5068860;28;20474;-18
2021/03/30 08:03:08;;;;;;;5.93;4.55;;;;;;;;;;5069118;28;20070;-17
2021/03/30 08:05:34;;;;;;;6.55;3.50;;;;;;;;;;5068412;28;20475;-18
2021/03/30 08:08:00;;;;;;;7.13;3.42;;;;;;;;;;5067411;28;20020;-17
2021/03/30 08:10:33;;;;;;;5.25;4.30;;;;;;;;;;5068802;28;20046;-18
2021/03/30 08:13:24;;;;;;;5.75;3.88;;;;;;;;;;5068832;28;20032;-17
2021/03/30 08:15:51;;;;;;;5.80;4.18;;;;;;;;;;5059337;28;20053;-18
2021/03/30 08:18:17;;;;;;;10.68;3.53;;;;;;;;;;5047915;28;20368;-17
2021/03/30 08:21:18;;;;;;;7.47;3.35;;;;;;;;;;5065299;28;20040;-17
2021/03/30 08:23:52;;;;;;;8.25;3.20;;;;;;;;;;4992576;28;20046;-17
2021/03/30 08:26:19;;;;;;;5.80;3.42;;;;;;;;;;5053581;28;20132;-18
2021/03/30 08:28:47;;;;;;;5.43;3.13;;;;;;;;;;5067910;28;20491;-18
2021/03/30 08:31:13;;;;;;;4.65;3.17;;;;;;;;;;5068912;28;20024;-19
2021/03/30 08:33:40;;;;;;;4.00;2.20;;;;;;;;;;5068791;28;20024;-19
2021/03/30 08:36:16;;;;;;;5.53;3.75;;;;;;;;;;5068476;28;20021;-19
2021/03/30 08:38:43;;;;;;;8.10;3.45;;;;;;;;;;5068208;28;20056;-18
2021/03/30 08:41:08;;;;;;;3.95;2.72;;;;;;;;;;5064811;28;20021;-18
2021/03/30 08:43:34;;;;;;;7.15;3.10;;;;;;;;;;5047888;28;20043;-18
2021/03/30 08:46:02;;;;;;;6.30;2.90;;;;;;;;;;5048321;28;20472;-18
2021/03/30 08:48:32;;;;;;;5.05;3.65;;;;;;;;;;5061693;28;20398;-18
2021/03/30 08:50:58;;;;;;;6.55;3.88;;;;;;;;;;5067868;28;20122;-18
2021/03/30 08:53:23;;;;;;;5.78;3.60;;;;;;;;;;5068099;28;20102;-18
2021/03/30 08:55:49;;;;;;;6.53;3.60;;;;;;;;;;5068211;28;20473;-18
2021/03/30 08:58:16;;;;;;;5.15;3.00;;;;;;;;;;5068077;28;20060;-17
2021/03/30 09:00:42;;;;;;;5.55;3.92;;;;;;;;;;5068079;28;20200;-17
2021/03/30 09:03:10;;;;;;;7.68;2.45;;;;;;;;;;5067888;28;20085;-17
2021/03/30 09:05:39;;;;;;;7.05;2.42;;;;;;;;;;5067479;28;20017;-17
2021/03/30 09:08:05;;;;;;;8.75;2.67;;;;;;;;;;5068046;28;20082;-17
2021/03/30 09:10:31;;;;;;;6.07;3.60;;;;;;;;;;5068338;28;20021;-18
2021/03/30 09:13:09;;;;;;;7.32;3.40;;;;;;;;;;5072160;28;20040;-17
2021/03/30 09:15:34;;;;;;;4.28;3.22;;;;;;;;;;5072021;28;20033;-17
2021/03/30 09:18:01;;;;;;;6.30;3.35;;;;;;;;;;5071453;28;20471;-17
2021/03/30 09:20:32;;;;;;;5.65;3.88;;;;;;;;;;5071785;28;20104;-18
2021/03/30 09:23:01;;;;;;;5.30;3.33;;;;;;;;;;5071562;28;20036;-17
2021/03/30 09:25:40;;;;;;;5.57;3.13;;;;;;;;;;5071283;28;20032;-17
2021/03/30 09:28:12;;;;;;;3.83;2.55;;;;;;;;;;5071336;28;20379;-17
2021/03/30 09:30:38;;;;;;;6.27;2.80;;;;;;;;;;5071282;28;20086;-17
2021/03/30 09:33:03;;;;;;;3.90;2.50;;;;;;;;;;5071644;28;20040;-17
2021/03/30 09:35:28;;;;;;;5.22;2.90;;;;;;;;;;5071500;28;20020;-17
2021/03/30 09:37:57;;;;;;;3.50;2.47;;;;;;;;;;5071875;28;20054;-17
2021/03/30 09:40:42;;;;;;;4.25;2.83;;;;;;;;;;5071265;28;20043;-17
2021/03/30 09:43:14;;;;;;;3.42;3.08;;;;;;;;;;5051240;28;20053;-17
2021/03/30 09:45:40;;;;;;;3.55;2.72;;;;;;;;;;5051072;28;20037;-17
2021/03/30 09:48:07;;;;;;;2.58;2.08;;;;;;;;;;5051235;28;20777;-16
2021/03/30 09:50:33;;;;;;;3.80;1.65;;;;;;;;;;5050366;28;20052;-17
2021/03/30 09:53:06;;;;;;;2.38;2.08;;;;;;;;;;5050694;28;20052;-17
2021/03/30 09:55:32;;;;;;;2.75;1.88;;;;;;;;;;5051091;28;20094;-18
2021/03/30 09:57:58;;;;;;;3.22;2.00;;;;;;;;;;5064815;28;20052;-17
2021/03/30 10:00:24;;;;;;;8.25;2.55;;;;;;;;;;5071433;28;20035;-17
2021/03/30 10:02:50;;;;;;;4.78;2.88;;;;;;;;;;5071068;28;20020;-19
2021/03/30 10:05:15;;;;;;;8.07;2.45;;;;;;;;;;5070474;28;20286;-18
2021/03/30 10:07:41;;;;;;;2.70;1.95;;;;;;;;;;5070806;28;20074;-18
2021/03/30 10:10:06;;;;;;;2.97;2.00;;;;;;;;;;5070798;28;20044;-18
2021/03/30 10:12:34;;;;;;;2.45;1.60;;;;;;;;;;5070692;28;20471;-17
2021/03/30 10:15:00;;;;;;;3.90;2.42;;;;;;;;;;5070876;28;20062;-18
2021/03/30 10:17:26;;;;;;;2.88;1.30;;;;;;;;;;5070125;28;20021;-18
2021/03/30 10:19:53;;;;;;;2.75;2.45;;;;;;;;;;5070602;28;20039;-18
2021/03/30 10:22:31;;;;;;;2.22;2.00;;;;;;;;;;5070690;28;20367;-18
2021/03/30 10:25:06;;;;;;;5.53;2.50;;;;;;;;;;5063655;28;20043;-17
2021/03/30 10:27:34;;;;;;;2.95;2.03;;;;;;;;;;5070891;28;20070;-17
2021/03/30 10:29:59;;;;;;;3.78;2.03;;;;;;;;;;5070165;28;20024;-17
2021/03/30 10:32:25;;;;;;;4.00;2.28;;;;;;;;;;5070160;28;20543;-18
2021/03/30 10:34:50;;;;;;;2.00;1.70;;;;;;;;;;5070511;28;20146;-17
2021/03/30 10:37:16;;;;;;;2.50;2.05;;;;;;;;;;5070565;28;20119;-17
2021/03/30 10:39:42;;;;;;;6.20;2.28;;;;;;;;;;5070217;28;20012;-17
2021/03/30 10:42:12;;;;;;;3.58;1.58;;;;;;;;;;5056647;28;20500;-17
2021/03/30 10:44:48;;;;;;;2.78;1.80;;;;;;;;;;5063955;28;20387;-17
2021/03/30 10:47:16;;;;;;;4.30;1.55;;;;;;;;;;5070670;28;20024;-17
2021/03/30 10:49:42;;;;;;;1.30;1.20;;;;;;;;;;5069795;28;20048;-18
2021/03/30 10:52:11;;;;;;;3.05;2.25;;;;;;;;;;5069710;28;20035;-17
2021/03/30 10:54:37;;;;;;;3.22;2.33;;;;;;;;;;5069848;28;20028;-17
2021/03/30 10:57:05;;;;;;;2.70;1.85;;;;;;;;;;5069817;28;20127;-17
2021/03/30 10:59:31;;;;;;;6.28;2.08;;;;;;;;;;5069420;28;20017;-17
2021/03/30 11:01:56;;;;;;;5.07;2.55;;;;;;;;;;5069598;28;20039;-18
2021/03/30 11:04:22;;;;;;;2.78;1.83;;;;;;;;;;5069287;28;20040;-17
2021/03/30 11:06:47;;;;;;;2.13;1.48;;;;;;;;;;5070033;28;20028;-17
2021/03/30 11:09:13;;;;;;;2.72;1.90;;;;;;;;;;5069642;28;20519;-17
2021/03/30 11:11:40;;;;;;;5.97;2.30;;;;;;;;;;5069665;28;20107;-17
2021/03/30 11:14:05;;;;;;;8.68;2.03;;;;;;;;;;5069735;28;20024;-17
2021/03/30 11:16:31;;;;;;;3.38;2.17;;;;;;;;;;5068854;28;20025;-17
2021/03/30 11:18:56;;;;;;;2.75;2.00;;;;;;;;;;5069555;28;20091;-18
2021/03/30 11:21:22;;;;;;;4.43;1.85;;;;;;;;;;5069442;28;20031;-16
2021/03/30 11:23:47;;;;;;;2.85;1.55;;;;;;;;;;5069543;28;20386;-17
2021/03/30 11:26:13;;;;;;;0.17;0.17;;;;;;;;;;5069636;28;20076;-18
2021/03/30 11:28:42;;;;;;;3.08;2.10;;;;;;;;;;5068890;28;20028;-18
2021/03/30 11:31:15;;;;;;;1.88;1.13;;;;;;;;;;5069306;28;20479;-17
2021/03/30 11:33:46;;;;;;;4.18;2.75;;;;;;;;;;5068540;28;20020;-20
2021/03/30 11:36:13;;;;;;;2.85;2.22;;;;;;;;;;5069021;28;20484;-18
2021/03/30 11:38:39;;;;;;;3.28;2.33;;;;;;;;;;5068389;28;20540;-17
2021/03/30 11:41:04;;;;;;;3.25;1.65;;;;;;;;;;5064274;28;20021;-19
2021/03/30 11:43:29;;;;;;;2.80;2.15;;;;;;;;;;5049052;28;20041;-17
2021/03/30 11:45:55;;;;;;;3.22;2.67;;;;;;;;;;5048900;28;20527;-17
2021/03/30 11:48:20;;;;;;;5.47;2.00;;;;;;;;;;5049160;28;20353;-17
2021/03/30 11:50:46;;;;;;;2.88;1.80;;;;;;;;;;5048882;28;20463;-18
2021/03/30 11:53:11;;;;;;;3.22;1.80;;;;;;;;;;5049020;28;20048;-17
2021/03/30 11:55:36;;;;;;;2.80;1.55;;;;;;;;;;5048653;28;20185;-17
2021/03/30 11:58:02;;;;;;;2.53;1.33;;;;;;;;;;5048649;28;20028;-17
2021/03/30 12:00:27;;;;;;;1.42;1.33;;;;;;;;;;5051594;28;20056;-17
2021/03/30 12:02:53;;;;;;;5.10;2.42;;;;;;;;;;5068806;28;20494;-17
2021/03/30 12:05:20;;;;;;;4.47;2.05;;;;;;;;;;5068781;28;20040;-17
2021/03/30 12:07:45;;;;;;;3.25;1.73;;;;;;;;;;5069125;28;20031;-18
2021/03/30 12:10:11;;;;;;;10.35;2.67;;;;;;;;;;5069122;28;20028;-17
2021/03/30 12:12:36;;;;;;;4.90;2.58;;;;;;;;;;5069388;28;20108;-17
2021/03/30 12:15:02;;;;;;;3.50;1.60;;;;;;;;;;5067983;28;20041;-18
2021/03/30 12:17:28;;;;;;;7.10;1.95;;;;;;;;;;5068416;28;20348;-18
2021/03/30 12:19:53;;;;;;;1.33;1.23;;;;;;;;;;5068824;28;20043;-18
2021/03/30 12:22:19;;;;;;;4.57;1.60;;;;;;;;;;5069101;28;20027;-17
2021/03/30 12:24:44;;;;;;;0.90;0.85;;;;;;;;;;5068637;28;20392;-17
2021/03/30 12:27:10;;;;;;;2.53;1.30;;;;;;;;;;5068576;28;20052;-17
2021/03/30 12:29:38;;;;;;;0.28;0.28;;;;;;;;;;5068245;28;20037;-17
2021/03/30 12:32:04;;;;;;;2.08;1.52;;;;;;;;;;5068749;28;20063;-16
2021/03/30 12:34:29;;;;;;;2.33;1.45;;;;;;;;;;5068594;28;20064;-17
2021/03/30 12:36:55;;;;;;;2.05;1.60;;;;;;;;;;5068833;28;20032;-17
2021/03/30 12:39:21;;;;;;;2.05;1.58;;;;;;;;;;5068936;28;20611;-18
2021/03/30 12:41:46;;;;;;;4.85;2.17;;;;;;;;;;5067611;28;20017;-17
2021/03/30 12:44:12;;;;;;;4.97;2.00;;;;;;;;;;5069615;28;20158;-17
2021/03/30 12:46:37;;;;;;;2.60;2.08;;;;;;;;;;5072752;28;20020;-17
2021/03/30 12:49:03;;;;;;;13.23;2.03;;;;;;;;;;5072916;28;20123;-17
2021/03/30 12:51:28;;;;;;;3.00;2.60;;;;;;;;;;5072717;28;20020;-17
2021/03/30 12:53:55;;;;;;;3.05;2.40;;;;;;;;;;5072104;28;20044;-18
2021/03/30 12:56:21;;;;;;;2.35;1.90;;;;;;;;;;5072519;28;20086;-17
2021/03/30 12:58:46;;;;;;;3.17;2.72;;;;;;;;;;5072667;28;20024;-16
2021/03/30 13:01:12;;;;;;;5.35;2.55;;;;;;;;;;5071127;28;20107;-17
2021/03/30 13:03:37;;;;;;;4.97;2.15;;;;;;;;;;5072263;28;20040;-17
2021/03/30 13:06:03;;;;;;;5.97;3.28;;;;;;;;;;5070647;28;20478;-17
2021/03/30 13:08:28;;;;;;;4.60;2.10;;;;;;;;;;5072012;28;20039;-17
2021/03/30 13:10:54;;;;;;;4.43;2.60;;;;;;;;;;5072303;28;20139;-17
2021/03/30 13:13:19;;;;;;;2.60;2.13;;;;;;;;;;5071937;28;20039;-17
2021/03/30 13:15:45;;;;;;;2.45;1.48;;;;;;;;;;5072164;28;20028;-17
2021/03/30 13:18:10;;;;;;;3.38;2.50;;;;;;;;;;5070396;28;20025;-17
2021/03/30 13:20:35;;;;;;;11.00;3.10;;;;;;;;;;5072287;28;20024;-17
2021/03/30 13:23:02;;;;;;;6.68;3.00;;;;;;;;;;5072282;28;20031;-17
2021/03/30 13:25:33;;;;;;;4.00;2.72;;;;;;;;;;5072063;28;20076;-17
2021/03/30 13:28:00;;;;;;;5.75;2.20;;;;;;;;;;5071584;28;20117;-17
2021/03/30 13:30:25;;;;;;;6.45;3.55;;;;;;;;;;5064543;28;20528;-17
2021/03/30 13:32:51;;;;;;;5.97;2.70;;;;;;;;;;5071271;28;20031;-17
2021/03/30 13:35:16;;;;;;;1.83;1.63;;;;;;;;;;5064588;28;20029;-18
2021/03/30 13:37:42;;;;;;;2.10;1.90;;;;;;;;;;5051360;28;20887;-17
2021/03/30 13:40:07;;;;;;;0.75;0.65;;;;;;;;;;5051300;28;20067;-17
2021/03/30 13:42:34;;;;;;;4.82;2.72;;;;;;;;;;5062021;28;20028;-17
2021/03/30 13:44:59;;;;;;;1.55;1.00;;;;;;;;;;5069805;28;20058;-17
2021/03/30 13:47:24;;;;;;;5.68;2.25;;;;;;;;;;5071255;28;20043;-17
2021/03/30 13:49:50;;;;;;;5.55;2.00;;;;;;;;;;5071031;28;20019;-17
2021/03/30 13:52:16;;;;;;;4.65;1.60;;;;;;;;;;5070870;28;20681;-17
2021/03/30 13:54:41;;;;;;;3.78;2.58;;;;;;;;;;5070650;28;20095;-18
2021/03/30 13:57:07;;;;;;;7.63;2.22;;;;;;;;;;5070000;28;20032;-18
2021/03/30 13:59:32;;;;;;;4.03;2.42;;;;;;;;;;5070737;28;20066;-17
2021/03/30 14:01:58;;;;;;;1.83;1.60;;;;;;;;;;5071023;28;20131;-17
2021/03/30 14:04:24;;;;;;;1.65;1.33;;;;;;;;;;5070389;28;20038;-19
2021/03/30 14:06:50;;;;;;;1.88;0.85;;;;;;;;;;5071301;28;20020;-18
2021/03/30 14:09:16;;;;;;;1.85;0.75;;;;;;;;;;5070937;28;20012;-18
2021/03/30 14:14:19;;;;;;;4.57;2.55;;;;;;;;;;5070937;28;20024;-17
2021/03/30 14:22:15;;;;;;;7.47;2.75;;;;;;;;;;5070528;28;20418;-17
2021/03/30 14:24:47;;;;;;;8.68;2.70;;;;;;;;;;5070475;28;20054;-22
2021/03/30 14:27:13;;;;;;;2.75;2.00;;;;;;;;;;5070025;28;20427;-18
2021/03/30 14:29:45;;;;;;;4.47;2.95;;;;;;;;;;5067746;28;20043;-17
2021/03/30 14:32:14;;;;;;;5.40;1.98;;;;;;;;;;5052559;28;20025;-17
2021/03/30 14:34:40;;;;;;;2.20;1.27;;;;;;;;;;5049758;28;20048;-17
2021/03/30 14:37:06;;;;;;;5.30;2.78;;;;;;;;;;5050239;28;20155;-19
2021/03/30 14:39:31;;;;;;;2.58;1.75;;;;;;;;;;5050393;28;20032;-19
2021/03/30 14:42:18;;;;;;;6.13;2.17;;;;;;;;;;5050103;28;20071;-19
2021/03/30 14:45:06;;;;;;;4.90;3.55;;;;;;;;;;5048313;28;20594;-19
2021/03/30 14:53:08;;;;;;;3.42;2.50;;;;;;;;;;5050244;28;20025;-17
2021/03/30 14:55:37;;;;;;;2.03;1.52;;;;;;;;;;5049026;28;20044;-16
2021/03/30 15:05:43;;;;;;;3.95;2.20;;;;;;;;;;5049657;28;20043;-19